createdAt,value
2023-03-24T00:03:49.075Z,11.10
2023-03-24T00:09:51.703Z,11.20
2023-03-24T00:15:54.668Z,11.30
2023-03-24T00:22:01.066Z,11.20
2023-03-24T00:28:07.874Z,11.20
2023-03-24T00:34:13.839Z,11.20
2023-03-24T00:40:18.313Z,11.30
2023-03-24T00:46:29.622Z,11.30
2023-03-24T00:52:34.102Z,11.30
2023-03-24T00:58:36.267Z,11.30
2023-03-24T01:04:39.710Z,11.30
2023-03-24T01:10:53.274Z,11.30
2023-03-24T01:16:55.076Z,11.40
2023-03-24T01:22:56.869Z,11.50
2023-03-24T01:28:58.640Z,11.50
2023-03-24T01:35:00.580Z,11.60
2023-03-24T01:41:03.130Z,11.60
2023-03-24T01:47:08.429Z,11.60
2023-03-24T01:53:10.732Z,11.60
2023-03-24T01:59:17.947Z,11.70
2023-03-24T02:05:36.981Z,11.70
2023-03-24T02:11:40.694Z,11.60
2023-03-24T02:18:02.973Z,11.50
2023-03-24T02:24:33.906Z,11.60
2023-03-24T02:31:01.261Z,11.60
2023-03-24T02:37:36.526Z,11.70
2023-03-24T02:44:01.652Z,11.70
2023-03-24T02:50:32.553Z,11.90
2023-03-24T02:56:42.910Z,11.90
2023-03-24T03:03:23.078Z,11.90
2023-03-24T03:09:27.897Z,11.90
2023-03-24T03:15:37.415Z,12.00
2023-03-24T03:21:43.447Z,12.00
2023-03-24T03:27:46.841Z,12.00
2023-03-24T03:34:19.086Z,12.10
2023-03-24T03:40:43.061Z,12.00
2023-03-24T03:46:53.473Z,11.90
2023-03-24T03:53:03.642Z,11.90
2023-03-24T03:59:07.064Z,11.80
2023-03-24T04:05:35.812Z,11.80
2023-03-24T04:11:59.599Z,11.80
2023-03-24T04:18:25.699Z,11.80
2023-03-24T04:25:00.103Z,11.70
2023-03-24T04:31:19.082Z,11.70
2023-03-24T04:37:38.276Z,11.80
2023-03-24T04:43:49.043Z,11.70
2023-03-24T04:49:51.154Z,11.80
2023-03-24T04:55:58.384Z,11.80
2023-03-24T05:02:21.872Z,11.70
2023-03-24T05:08:34.028Z,11.70
2023-03-24T05:14:36.272Z,11.70
2023-03-24T05:20:40.541Z,11.70
2023-03-24T05:26:50.017Z,11.80
2023-03-24T05:32:54.609Z,11.90
2023-03-24T05:38:56.553Z,11.80
2023-03-24T05:45:06.539Z,11.80
2023-03-24T05:51:09.439Z,11.80
2023-03-24T05:57:14.506Z,11.90
2023-03-24T06:03:49.100Z,11.90
2023-03-24T06:09:52.657Z,11.90
2023-03-24T06:15:59.346Z,11.90
2023-03-24T06:22:10.399Z,12.10
2023-03-24T06:28:14.201Z,12.10
2023-03-24T06:34:18.994Z,12.20
2023-03-24T06:40:35.168Z,12.30
2023-03-24T06:46:38.608Z,12.50
2023-03-24T06:52:41.923Z,12.60
2023-03-24T06:58:47.269Z,12.70
2023-03-24T07:05:01.083Z,12.60
2023-03-24T07:11:14.664Z,12.60
2023-03-24T07:17:25.315Z,12.60
2023-03-24T07:23:59.661Z,12.60
2023-03-24T07:30:09.484Z,12.60
2023-03-24T07:36:15.017Z,12.50
2023-03-24T07:42:16.987Z,12.40
2023-03-24T07:48:38.908Z,12.20
2023-03-24T07:54:40.932Z,12.00
2023-03-24T08:00:43.291Z,12.10
2023-03-24T08:07:01.828Z,12.30
2023-03-24T08:13:04.696Z,12.50
2023-03-24T08:19:06.674Z,12.90
2023-03-24T08:25:11.245Z,13.30
2023-03-24T08:31:13.249Z,13.60
2023-03-24T08:37:15.100Z,14.10
2023-03-24T08:43:17.539Z,14.40
2023-03-24T08:49:19.391Z,14.40
2023-03-24T08:55:25.571Z,14.20
2023-03-24T09:01:27.521Z,14.30
2023-03-24T09:07:29.351Z,14.40
2023-03-24T09:13:31.304Z,14.50
2023-03-24T09:19:34.121Z,14.70
2023-03-24T09:25:35.975Z,14.50
2023-03-24T09:31:37.824Z,14.50
2023-03-24T09:37:39.840Z,14.20
2023-03-24T09:43:46.704Z,14.20
2023-03-24T09:49:49.330Z,14.20
2023-03-24T09:55:51.399Z,14.20
2023-03-24T10:01:53.558Z,14.50
2023-03-24T10:08:09.231Z,14.50
2023-03-24T10:14:18.383Z,14.30
2023-03-24T10:20:30.791Z,14.80
2023-03-24T10:26:53.827Z,14.70
2023-03-24T10:32:56.070Z,14.90
2023-03-24T10:39:01.851Z,14.70
2023-03-24T10:45:14.111Z,14.70
2023-03-24T10:51:27.488Z,15.00
2023-03-24T10:57:30.620Z,15.10
2023-03-24T11:03:36.517Z,15.00
2023-03-24T11:09:43.405Z,15.20
2023-03-24T11:16:07.402Z,15.50
2023-03-24T11:22:11.563Z,15.90
2023-03-24T11:28:21.133Z,16.10
2023-03-24T11:34:34.309Z,16.10
2023-03-24T11:40:36.274Z,16.70
2023-03-24T11:46:41.061Z,17.10
2023-03-24T11:53:20.448Z,17.00
2023-03-24T12:00:00.048Z,16.50
2023-03-24T12:06:24.447Z,16.30
2023-03-24T12:13:01.987Z,15.90
2023-03-24T12:19:39.693Z,15.40
2023-03-24T12:26:10.972Z,14.90
2023-03-24T12:32:25.916Z,14.80
2023-03-24T12:38:58.009Z,15.20
2023-03-24T12:45:18.571Z,15.70
2023-03-24T12:51:51.728Z,15.40
2023-03-24T12:58:11.267Z,15.80
2023-03-24T13:04:24.485Z,15.80
2023-03-24T13:10:33.037Z,16.30
2023-03-24T13:16:37.895Z,16.70
2023-03-24T13:22:40.974Z,16.50
2023-03-24T13:29:03.987Z,16.10
2023-03-24T13:35:21.734Z,15.60
2023-03-24T13:41:27.239Z,15.30
2023-03-24T13:47:55.927Z,15.40
2023-03-24T13:54:15.728Z,15.30
2023-03-24T14:00:21.047Z,15.20
2023-03-24T14:06:50.266Z,15.40
2023-03-24T14:12:55.658Z,15.50
2023-03-24T14:19:19.518Z,15.50
2023-03-24T14:25:27.217Z,16.00
2023-03-24T14:31:34.305Z,16.10
2023-03-24T14:37:37.329Z,15.80
2023-03-24T14:43:39.095Z,15.50
2023-03-24T14:49:44.719Z,15.30
2023-03-24T14:55:48.448Z,15.50
2023-03-24T15:01:55.354Z,15.30
2023-03-24T15:08:23.661Z,15.20
2023-03-24T15:14:26.254Z,15.10
2023-03-24T15:20:35.186Z,15.10
2023-03-24T15:26:37.577Z,15.30
2023-03-24T15:32:40.340Z,15.90
2023-03-24T15:38:48.102Z,16.00
2023-03-24T15:44:51.303Z,15.80
2023-03-24T15:51:11.624Z,15.50
2023-03-24T15:57:24.070Z,15.30
2023-03-24T16:03:27.079Z,15.00
2023-03-24T16:09:40.990Z,15.00
2023-03-24T16:15:48.813Z,14.80
2023-03-24T16:21:50.942Z,14.70
2023-03-24T16:27:52.712Z,14.50
2023-03-24T16:33:56.638Z,14.60
2023-03-24T16:40:01.710Z,15.00
2023-03-24T16:46:05.846Z,15.30
2023-03-24T16:52:15.809Z,14.40
2023-03-24T16:58:18.225Z,13.60
2023-03-24T17:04:22.281Z,13.10
2023-03-24T17:10:28.033Z,12.80
2023-03-24T17:16:30.437Z,12.50
2023-03-24T17:22:35.076Z,12.40
2023-03-24T17:28:36.833Z,12.00
2023-03-24T17:34:38.615Z,11.60
2023-03-24T17:40:41.081Z,11.20
2023-03-24T17:46:42.910Z,11.00
2023-03-24T17:52:49.144Z,10.70
2023-03-24T17:58:54.678Z,10.40
2023-03-24T18:04:56.961Z,10.20
2023-03-24T18:11:07.551Z,10.00
2023-03-24T18:17:09.509Z,9.80
2023-03-24T18:23:11.571Z,9.50
2023-03-24T18:29:13.616Z,9.40
2023-03-24T18:35:16.372Z,9.30
2023-03-24T18:41:18.732Z,9.30
2023-03-24T18:47:20.585Z,9.10
2023-03-24T18:53:22.778Z,9.00
2023-03-24T18:59:24.870Z,9.00
2023-03-24T19:05:26.909Z,8.90
2023-03-24T19:11:28.689Z,8.70
2023-03-24T19:17:30.863Z,8.90
2023-03-24T19:23:33.476Z,9.20
2023-03-24T19:29:35.552Z,9.50
2023-03-24T19:35:37.356Z,9.70
2023-03-24T19:41:40.516Z,9.80
2023-03-24T19:47:43.579Z,9.70
2023-03-24T19:53:45.445Z,9.70
2023-03-24T19:59:47.584Z,9.60
2023-03-24T20:05:50.177Z,9.60
2023-03-24T20:11:53.220Z,9.40
2023-03-24T20:17:55.172Z,9.20
2023-03-24T20:23:56.982Z,8.90
2023-03-24T20:29:58.766Z,8.70
2023-03-24T20:36:01.058Z,8.60
2023-03-24T20:42:03.014Z,8.60
2023-03-24T20:48:04.834Z,8.60
2023-03-24T20:54:08.109Z,8.50
2023-03-24T21:00:14.174Z,8.50
2023-03-24T21:06:17.666Z,8.40
2023-03-24T21:12:19.442Z,8.20
2023-03-24T21:18:21.207Z,8.20
2023-03-24T21:24:24.119Z,8.20
2023-03-24T21:30:27.750Z,8.10
2023-03-24T21:36:31.013Z,7.90
2023-03-24T21:42:34.725Z,7.90
2023-03-24T21:48:40.120Z,7.90
2023-03-24T21:54:43.574Z,8.00
2023-03-24T22:00:46.761Z,8.20
2023-03-24T22:06:48.604Z,8.20
2023-03-24T22:12:52.115Z,8.20
2023-03-24T22:18:54.198Z,8.20
2023-03-24T22:24:58.705Z,8.30
2023-03-24T22:31:05.742Z,8.40
2023-03-24T22:37:07.688Z,8.40
2023-03-24T22:43:10.333Z,8.30
2023-03-24T22:49:12.118Z,8.50
2023-03-24T22:55:13.900Z,8.60
2023-03-24T23:01:16.369Z,8.80
2023-03-24T23:07:18.243Z,8.80
2023-03-24T23:13:20.164Z,8.90
2023-03-24T23:19:23.182Z,8.90
2023-03-24T23:25:25.954Z,8.90
2023-03-24T23:31:28.379Z,8.90
2023-03-24T23:37:32.152Z,8.90
2023-03-24T23:43:34.324Z,9.00
2023-03-24T23:49:36.125Z,9.20
2023-03-24T23:55:38.297Z,9.10
